createdAt,value
2022-10-04T00:01:52.904Z,90.12
2022-10-04T00:04:25.780Z,89.96
2022-10-04T00:07:01.133Z,89.80
2022-10-04T00:09:36.049Z,89.78
2022-10-04T00:12:05.963Z,89.94
2022-10-04T00:14:40.720Z,89.59
2022-10-04T00:17:15.255Z,89.96
2022-10-04T00:19:47.151Z,89.84
2022-10-04T00:22:21.338Z,89.91
2022-10-04T00:25:21.269Z,89.83
2022-10-04T00:28:29.953Z,90.05
2022-10-04T00:31:24.677Z,89.86
2022-10-04T00:33:56.433Z,89.83
2022-10-04T00:36:47.585Z,90.09
2022-10-04T00:39:39.907Z,90.09
2022-10-04T00:42:42.840Z,89.65
2022-10-04T00:45:35.187Z,89.86
2022-10-04T00:48:44.775Z,89.93
2022-10-04T00:51:25.425Z,89.94
2022-10-04T00:54:08.696Z,90.03
2022-10-04T00:56:44.501Z,90.02
2022-10-04T00:59:35.701Z,90.01
2022-10-04T01:02:08.483Z,90.02
2022-10-04T01:04:44.696Z,89.92
2022-10-04T01:07:17.457Z,90.12
2022-10-04T01:09:51.098Z,89.80
2022-10-04T01:12:34.688Z,89.86
2022-10-04T01:15:10.110Z,90.09
2022-10-04T01:17:38.380Z,90.18
2022-10-04T01:20:32.740Z,90.27
2022-10-04T01:23:03.818Z,90.02
2022-10-04T01:25:52.050Z,89.86
2022-10-04T01:28:21.545Z,90.04
2022-10-04T01:30:50.121Z,90.22
2022-10-04T01:33:19.223Z,90.03
2022-10-04T01:35:48.224Z,90.02
2022-10-04T01:38:17.845Z,90.31
2022-10-04T01:40:51.480Z,90.14
2022-10-04T01:43:28.910Z,90.41
2022-10-04T01:46:03.814Z,90.20
2022-10-04T01:48:39.158Z,90.11
2022-10-04T01:51:15.579Z,90.45
2022-10-04T01:53:54.888Z,90.50
2022-10-04T01:56:28.622Z,90.28
2022-10-04T01:59:03.072Z,90.32
2022-10-04T02:01:40.111Z,90.36
2022-10-04T02:04:21.351Z,90.58
2022-10-04T02:06:56.298Z,90.37
2022-10-04T02:09:29.930Z,90.60
2022-10-04T02:11:59.682Z,90.65
2022-10-04T02:14:33.510Z,90.32
2022-10-04T02:17:04.682Z,90.51
2022-10-04T02:19:37.320Z,90.64
2022-10-04T02:22:06.647Z,90.61
2022-10-04T02:24:41.810Z,90.36
2022-10-04T02:27:10.088Z,90.59
2022-10-04T02:29:38.558Z,90.50
2022-10-04T02:32:26.048Z,90.65
2022-10-04T02:34:56.679Z,90.87
2022-10-04T02:37:26.876Z,90.91
2022-10-04T02:40:04.825Z,90.70
2022-10-04T02:42:42.020Z,90.78
2022-10-04T02:45:20.510Z,90.62
2022-10-04T02:47:55.690Z,90.72
2022-10-04T02:50:32.017Z,90.84
2022-10-04T02:53:05.845Z,91.03
2022-10-04T02:55:36.044Z,90.87
2022-10-04T02:58:10.771Z,90.79
2022-10-04T03:00:49.439Z,90.81
2022-10-04T03:03:24.633Z,90.75
2022-10-04T03:06:03.236Z,91.13
2022-10-04T03:08:36.247Z,90.91
2022-10-04T03:11:06.904Z,90.72
2022-10-04T03:13:37.242Z,90.98
2022-10-04T03:16:07.106Z,91.26
2022-10-04T03:18:37.947Z,91.08
2022-10-04T03:21:09.037Z,91.16
2022-10-04T03:23:38.603Z,91.09
2022-10-04T03:26:20.763Z,91.28
2022-10-04T03:28:49.654Z,91.26
2022-10-04T03:31:19.949Z,91.18
2022-10-04T03:33:49.056Z,91.02
2022-10-04T03:36:20.506Z,91.09
2022-10-04T03:38:50.282Z,91.37
2022-10-04T03:41:20.527Z,90.92
2022-10-04T03:43:51.429Z,91.25
2022-10-04T03:46:22.866Z,91.29
2022-10-04T03:48:53.820Z,91.06
2022-10-04T03:51:25.666Z,91.16
2022-10-04T03:53:57.319Z,91.21
2022-10-04T03:56:31.825Z,91.23
2022-10-04T03:59:02.927Z,91.38
2022-10-04T04:01:40.607Z,91.24
2022-10-04T04:04:22.192Z,91.35
2022-10-04T04:07:03.546Z,91.49
2022-10-04T04:09:44.159Z,91.37
2022-10-04T04:12:20.055Z,91.41
2022-10-04T04:14:52.731Z,91.12
2022-10-04T04:17:37.192Z,91.37
2022-10-04T04:20:20.911Z,91.36
2022-10-04T04:23:00.686Z,91.34
2022-10-04T04:25:33.789Z,91.36
2022-10-04T04:28:15.119Z,91.17
2022-10-04T04:30:48.732Z,91.47
2022-10-04T04:33:27.857Z,91.39
2022-10-04T04:35:57.705Z,91.68
2022-10-04T04:38:27.141Z,91.70
2022-10-04T04:40:57.409Z,91.78
2022-10-04T04:43:28.830Z,91.82
2022-10-04T04:46:25.674Z,91.47
2022-10-04T04:48:50.739Z,91.49
2022-10-04T04:51:24.865Z,91.70
2022-10-04T04:53:55.027Z,91.64
2022-10-04T04:56:27.725Z,91.79
2022-10-04T04:59:01.656Z,91.68
2022-10-04T05:01:35.333Z,91.74
2022-10-04T05:04:06.277Z,91.56
2022-10-04T05:06:36.892Z,91.74
2022-10-04T05:09:06.452Z,91.93
2022-10-04T05:11:38.695Z,91.89
2022-10-04T05:14:12.142Z,91.86
2022-10-04T05:16:46.165Z,91.49
2022-10-04T05:19:21.669Z,91.62
2022-10-04T05:21:54.016Z,91.92
2022-10-04T05:24:27.711Z,91.66
2022-10-04T05:27:00.886Z,91.76
2022-10-04T05:29:36.095Z,91.93
2022-10-04T05:32:17.381Z,91.65
2022-10-04T05:34:50.038Z,91.72
2022-10-04T05:37:46.627Z,91.51
2022-10-04T05:40:33.206Z,91.67
2022-10-04T05:43:01.587Z,91.52
2022-10-04T05:45:32.691Z,91.60
2022-10-04T05:48:07.784Z,91.70
2022-10-04T05:50:40.607Z,91.78
2022-10-04T05:53:19.763Z,91.62
2022-10-04T05:55:59.153Z,91.45
2022-10-04T05:58:48.424Z,91.56
2022-10-04T06:01:34.655Z,91.53
2022-10-04T06:04:42.611Z,91.71
2022-10-04T06:07:24.153Z,91.42
2022-10-04T06:10:27.213Z,91.74
2022-10-04T06:13:02.779Z,91.70
2022-10-04T06:16:15.211Z,91.70
2022-10-04T06:19:33.416Z,91.51
2022-10-04T06:22:18.796Z,91.48
2022-10-04T06:24:53.223Z,91.60
2022-10-04T06:27:30.105Z,91.26
2022-10-04T06:30:03.876Z,91.57
2022-10-04T06:33:20.041Z,91.35
2022-10-04T06:36:17.182Z,91.48
2022-10-04T06:39:29.373Z,91.36
2022-10-04T06:42:21.490Z,91.59
2022-10-04T06:45:07.442Z,91.57
2022-10-04T06:48:03.490Z,91.50
2022-10-04T06:50:47.454Z,91.27
2022-10-04T06:53:27.404Z,91.48
2022-10-04T06:56:32.377Z,91.27
2022-10-04T06:59:36.732Z,91.35
2022-10-04T07:02:13.227Z,91.37
2022-10-04T07:05:07.642Z,91.45
2022-10-04T07:07:39.669Z,91.43
2022-10-04T07:10:31.094Z,91.19
2022-10-04T07:13:40.976Z,91.29
2022-10-04T07:16:22.172Z,90.97
2022-10-04T07:19:04.484Z,91.28
2022-10-04T07:21:46.218Z,91.07
2022-10-04T07:24:26.138Z,90.88
2022-10-04T07:26:57.331Z,90.87
2022-10-04T07:29:28.918Z,91.03
2022-10-04T07:32:12.721Z,90.92
2022-10-04T07:34:47.996Z,90.94
2022-10-04T07:37:17.307Z,90.91
2022-10-04T07:39:53.737Z,90.70
2022-10-04T07:42:31.221Z,90.67
2022-10-04T07:45:17.507Z,90.83
2022-10-04T07:47:46.070Z,90.99
2022-10-04T07:50:25.941Z,90.70
2022-10-04T07:53:04.883Z,90.69
2022-10-04T07:55:51.060Z,90.76
2022-10-04T07:58:46.119Z,90.78
2022-10-04T08:01:30.146Z,90.78
2022-10-04T08:04:32.946Z,90.52
2022-10-04T08:07:04.417Z,90.55
2022-10-04T08:09:50.971Z,90.54
2022-10-04T08:12:25.795Z,90.42
2022-10-04T08:15:23.794Z,90.42
2022-10-04T08:18:02.315Z,90.40
2022-10-04T08:20:40.264Z,90.46
2022-10-04T08:23:32.574Z,90.23
2022-10-04T08:26:18.409Z,90.31
2022-10-04T08:29:14.278Z,90.12
2022-10-04T08:32:05.077Z,90.30
2022-10-04T08:34:57.233Z,90.04
2022-10-04T08:37:36.781Z,90.21
2022-10-04T08:40:45.613Z,90.14
2022-10-04T08:44:10.220Z,90.22
2022-10-04T08:47:34.487Z,89.84
2022-10-04T08:50:35.499Z,89.94
2022-10-04T08:54:01.830Z,89.58
2022-10-04T08:56:54.796Z,89.49
2022-10-04T09:00:13.840Z,89.54
2022-10-04T09:03:26.538Z,89.48
2022-10-04T09:06:28.776Z,89.15
2022-10-04T09:09:46.468Z,89.02
2022-10-04T09:12:49.430Z,88.86
2022-10-04T09:15:43.643Z,89.05
2022-10-04T09:18:39.203Z,88.73
2022-10-04T09:21:14.198Z,88.82
2022-10-04T09:24:24.198Z,88.44
2022-10-04T09:27:02.003Z,88.39
2022-10-04T09:29:57.529Z,88.38
2022-10-04T09:33:07.815Z,87.95
2022-10-04T09:36:04.397Z,88.17
2022-10-04T09:39:30.144Z,88.11
2022-10-04T09:42:42.292Z,87.98
2022-10-04T09:45:36.330Z,87.91
2022-10-04T09:48:25.080Z,87.41
2022-10-04T09:51:41.992Z,87.12
2022-10-04T09:54:55.150Z,86.80
2022-10-04T09:57:39.302Z,86.34
2022-10-04T10:00:24.023Z,86.34
2022-10-04T10:03:36.087Z,86.05
2022-10-04T10:06:48.721Z,85.36
2022-10-04T10:09:46.394Z,84.46
2022-10-04T10:13:08.719Z,83.99
2022-10-04T10:15:56.077Z,83.70
2022-10-04T10:18:37.963Z,83.16
2022-10-04T10:21:35.204Z,83.07
2022-10-04T10:24:47.882Z,82.30
2022-10-04T10:27:50.594Z,82.20
2022-10-04T10:30:26.634Z,81.71
2022-10-04T10:33:42.522Z,81.70
2022-10-04T10:36:44.284Z,81.09
2022-10-04T10:39:53.103Z,80.61
2022-10-04T10:42:57.322Z,80.32
2022-10-04T10:45:45.797Z,79.88
2022-10-04T10:48:21.354Z,79.47
2022-10-04T10:51:01.294Z,79.19
2022-10-04T10:54:22.957Z,78.89
2022-10-04T10:57:09.818Z,78.71
2022-10-04T11:00:17.697Z,78.54
2022-10-04T11:03:32.025Z,78.33
2022-10-04T11:07:04.814Z,78.06
2022-10-04T11:10:18.806Z,77.68
2022-10-04T11:13:21.360Z,77.13
2022-10-04T11:16:30.257Z,76.98
2022-10-04T11:19:38.012Z,76.31
2022-10-04T11:23:22.325Z,75.98
2022-10-04T11:26:48.535Z,75.78
2022-10-04T11:29:44.124Z,75.45
2022-10-04T11:33:12.478Z,75.22
2022-10-04T11:36:26.777Z,75.02
2022-10-04T11:39:48.764Z,75.04
2022-10-04T11:42:36.714Z,74.85
2022-10-04T11:45:54.202Z,74.64
2022-10-04T11:48:40.001Z,74.64
2022-10-04T11:51:51.762Z,74.82
2022-10-04T11:55:00.302Z,74.61
2022-10-04T11:57:37.512Z,74.72
2022-10-04T12:00:16.565Z,74.59
2022-10-04T12:03:32.926Z,74.17
2022-10-04T12:06:37.276Z,74.26
2022-10-04T12:09:19.992Z,73.88
2022-10-04T12:12:39.113Z,73.42
2022-10-04T12:15:41.551Z,72.91
2022-10-04T12:19:00.024Z,72.66
2022-10-04T12:21:52.280Z,72.50
2022-10-04T12:25:07.230Z,72.55
2022-10-04T12:28:11.771Z,72.79
2022-10-04T12:31:16.392Z,73.21
2022-10-04T12:33:54.108Z,73.27
2022-10-04T12:37:01.442Z,73.05
2022-10-04T12:40:04.088Z,73.16
2022-10-04T12:42:44.331Z,73.17
2022-10-04T12:45:52.658Z,72.65
2022-10-04T12:48:49.196Z,72.38
2022-10-04T12:51:36.977Z,72.03
2022-10-04T12:54:34.353Z,71.87
2022-10-04T12:57:42.529Z,71.75
2022-10-04T13:00:22.797Z,71.85
2022-10-04T13:03:21.868Z,71.30
2022-10-04T13:06:05.784Z,70.84
2022-10-04T13:08:51.674Z,70.10
2022-10-04T13:11:46.264Z,69.85
2022-10-04T13:15:06.283Z,69.16
2022-10-04T13:17:47.287Z,69.63
2022-10-04T13:20:41.733Z,69.53
2022-10-04T13:23:26.113Z,69.19
2022-10-04T13:26:27.555Z,69.04
2022-10-04T13:29:05.021Z,69.23
2022-10-04T13:31:40.659Z,68.74
2022-10-04T13:34:23.460Z,68.71
2022-10-04T13:37:27.116Z,68.56
2022-10-04T13:40:26.663Z,68.80
2022-10-04T13:43:21.510Z,68.85
2022-10-04T13:46:06.185Z,69.03
2022-10-04T13:48:55.509Z,69.31
2022-10-04T13:52:15.696Z,69.26
2022-10-04T13:55:17.539Z,69.35
2022-10-04T13:57:56.565Z,69.47
2022-10-04T14:00:49.956Z,69.09
2022-10-04T14:03:36.135Z,69.23
2022-10-04T14:06:54.154Z,68.85
2022-10-04T14:09:58.797Z,69.27
2022-10-04T14:13:06.139Z,69.55
2022-10-04T14:16:34.123Z,69.58
2022-10-04T14:19:49.574Z,69.61
2022-10-04T14:23:02.813Z,69.87
2022-10-04T14:26:15.522Z,69.58
2022-10-04T14:29:21.577Z,70.00
2022-10-04T14:32:37.068Z,69.79
2022-10-04T14:35:13.475Z,70.14
2022-10-04T14:38:16.189Z,70.18
2022-10-04T14:41:53.156Z,70.05
2022-10-04T14:45:19.956Z,70.30
2022-10-04T14:48:30.588Z,70.14
2022-10-04T14:51:21.341Z,70.34
2022-10-04T14:54:01.948Z,70.04
2022-10-04T14:56:52.279Z,70.41
2022-10-04T15:00:03.275Z,70.33
2022-10-04T15:03:05.051Z,70.44
2022-10-04T15:06:00.225Z,70.55
2022-10-04T15:09:10.488Z,70.72
2022-10-04T15:12:21.490Z,70.99
2022-10-04T15:15:02.466Z,70.75
2022-10-04T15:17:37.825Z,70.84
2022-10-04T15:20:20.107Z,70.96
2022-10-04T15:22:55.205Z,71.14
2022-10-04T15:25:43.476Z,70.95
2022-10-04T15:28:41.776Z,71.08
2022-10-04T15:31:20.423Z,71.26
2022-10-04T15:34:03.655Z,70.86
2022-10-04T15:37:09.953Z,71.23
2022-10-04T15:40:22.148Z,71.08
2022-10-04T15:43:21.867Z,71.27
2022-10-04T15:46:32.553Z,71.09
2022-10-04T15:49:20.634Z,71.05
2022-10-04T15:52:19.137Z,71.08
2022-10-04T15:55:25.920Z,71.34
2022-10-04T15:58:53.204Z,71.43
2022-10-04T16:02:05.060Z,71.64
2022-10-04T16:04:44.910Z,71.64
2022-10-04T16:07:42.652Z,71.70
2022-10-04T16:10:27.037Z,71.79
2022-10-04T16:13:37.163Z,72.15
2022-10-04T16:16:59.915Z,72.13
2022-10-04T16:19:47.187Z,72.44
2022-10-04T16:22:18.752Z,72.77
2022-10-04T16:24:51.422Z,72.61
2022-10-04T16:27:46.129Z,72.83
2022-10-04T16:30:28.170Z,72.90
2022-10-04T16:33:31.247Z,73.33
2022-10-04T16:36:12.725Z,73.55
2022-10-04T16:39:01.865Z,73.71
2022-10-04T16:41:42.254Z,73.94
2022-10-04T16:44:33.729Z,74.01
2022-10-04T16:47:14.825Z,74.05
2022-10-04T16:49:54.855Z,73.93
2022-10-04T16:52:54.910Z,74.09
2022-10-04T16:55:46.215Z,74.20
2022-10-04T16:58:50.925Z,74.26
2022-10-04T17:02:17.046Z,74.35
2022-10-04T17:05:03.693Z,74.66
2022-10-04T17:07:52.260Z,74.38
2022-10-04T17:10:35.761Z,74.75
2022-10-04T17:13:23.347Z,74.87
2022-10-04T17:16:06.594Z,74.96
2022-10-04T17:18:51.119Z,75.28
2022-10-04T17:21:38.455Z,75.31
2022-10-04T17:24:23.127Z,75.33
2022-10-04T17:27:16.993Z,75.66
2022-10-04T17:30:06.451Z,75.61
2022-10-04T17:33:03.732Z,75.84
2022-10-04T17:36:40.433Z,76.11
2022-10-04T17:39:44.417Z,76.06
2022-10-04T17:42:34.672Z,76.14
2022-10-04T17:46:01.008Z,76.21
2022-10-04T17:48:50.046Z,76.32
2022-10-04T17:52:04.885Z,76.25
2022-10-04T17:55:08.439Z,76.41
2022-10-04T17:57:45.713Z,76.71
2022-10-04T18:00:18.467Z,76.60
2022-10-04T18:03:12.151Z,76.68
2022-10-04T18:05:51.103Z,77.00
2022-10-04T18:08:34.856Z,77.00
2022-10-04T18:11:07.377Z,77.08
2022-10-04T18:13:44.488Z,77.34
2022-10-04T18:16:22.936Z,77.24
2022-10-04T18:18:51.893Z,77.50
2022-10-04T18:21:26.329Z,77.59
2022-10-04T18:24:00.835Z,77.45
2022-10-04T18:26:33.418Z,77.48
2022-10-04T18:29:03.781Z,77.42
2022-10-04T18:31:39.051Z,77.33
2022-10-04T18:34:27.927Z,77.52
2022-10-04T18:37:06.699Z,77.52
2022-10-04T18:39:50.630Z,77.43
2022-10-04T18:42:29.300Z,77.40
2022-10-04T18:45:00.039Z,77.76
2022-10-04T18:47:37.074Z,77.51
2022-10-04T18:50:23.135Z,77.69
2022-10-04T18:53:21.218Z,78.00
2022-10-04T18:56:00.381Z,78.17
2022-10-04T18:59:11.773Z,78.23
2022-10-04T19:02:03.437Z,78.51
2022-10-04T19:04:57.910Z,78.61
2022-10-04T19:07:38.889Z,78.62
2022-10-04T19:10:22.814Z,78.93
2022-10-04T19:13:16.311Z,78.88
2022-10-04T19:16:05.332Z,78.89
2022-10-04T19:18:54.303Z,78.99
2022-10-04T19:21:31.948Z,79.02
2022-10-04T19:24:24.362Z,79.01
2022-10-04T19:27:00.299Z,78.92
2022-10-04T19:29:44.191Z,78.89
2022-10-04T19:32:27.735Z,79.04
2022-10-04T19:35:09.793Z,78.95
2022-10-04T19:37:49.862Z,79.15
2022-10-04T19:40:27.095Z,79.06
2022-10-04T19:43:09.316Z,79.32
2022-10-04T19:45:48.212Z,79.26
2022-10-04T19:48:24.417Z,79.26
2022-10-04T19:51:00.584Z,79.20
2022-10-04T19:53:36.173Z,79.26
2022-10-04T19:56:15.460Z,78.94
2022-10-04T19:58:45.538Z,79.14
2022-10-04T20:01:17.161Z,79.15
2022-10-04T20:03:45.770Z,78.83
2022-10-04T20:06:22.540Z,79.10
2022-10-04T20:09:01.493Z,78.79
2022-10-04T20:11:49.594Z,78.96
2022-10-04T20:15:12.223Z,79.12
2022-10-04T20:17:42.760Z,78.92
2022-10-04T20:20:14.797Z,78.93
2022-10-04T20:22:58.074Z,78.88
2022-10-04T20:26:02.035Z,78.97
2022-10-04T20:28:47.225Z,79.03
2022-10-04T20:31:53.332Z,78.70
2022-10-04T20:34:35.473Z,78.71
2022-10-04T20:37:04.878Z,78.98
2022-10-04T20:40:00.459Z,78.68
2022-10-04T20:42:35.319Z,78.46
2022-10-04T20:45:27.733Z,78.92
2022-10-04T20:47:58.207Z,78.85
2022-10-04T20:50:40.785Z,78.53
2022-10-04T20:53:20.806Z,78.38
2022-10-04T20:55:49.806Z,78.51
2022-10-04T20:58:32.273Z,78.65
2022-10-04T21:01:16.486Z,78.42
2022-10-04T21:03:44.827Z,78.36
2022-10-04T21:06:14.391Z,78.40
2022-10-04T21:08:42.732Z,78.40
2022-10-04T21:11:20.423Z,78.71
2022-10-04T21:13:55.306Z,78.46
2022-10-04T21:16:41.703Z,78.48
2022-10-04T21:19:50.281Z,78.31
2022-10-04T21:22:39.706Z,78.27
2022-10-04T21:25:40.191Z,78.45
2022-10-04T21:28:32.625Z,78.42
2022-10-04T21:31:04.890Z,78.36
2022-10-04T21:33:34.225Z,78.28
2022-10-04T21:36:02.437Z,78.28
2022-10-04T21:38:32.170Z,78.13
2022-10-04T21:41:00.369Z,78.35
2022-10-04T21:43:28.843Z,78.45
2022-10-04T21:45:57.561Z,78.34
2022-10-04T21:48:26.603Z,78.22
2022-10-04T21:50:55.510Z,78.17
2022-10-04T21:53:24.142Z,78.06
2022-10-04T21:55:53.726Z,78.09
2022-10-04T21:58:21.985Z,78.33
2022-10-04T22:00:50.672Z,78.19
2022-10-04T22:03:18.903Z,78.24
2022-10-04T22:05:47.127Z,78.08
2022-10-04T22:08:15.366Z,77.95
2022-10-04T22:10:45.023Z,78.20
2022-10-04T22:13:14.684Z,78.26
2022-10-04T22:15:43.063Z,77.93
2022-10-04T22:18:11.262Z,77.85
2022-10-04T22:20:39.513Z,77.85
2022-10-04T22:23:21.494Z,78.12
2022-10-04T22:25:49.897Z,77.97
2022-10-04T22:28:24.464Z,78.18
2022-10-04T22:30:55.767Z,78.18
2022-10-04T22:33:34.820Z,77.68
2022-10-04T22:36:16.838Z,77.86
2022-10-04T22:38:51.913Z,78.10
2022-10-04T22:41:20.916Z,78.17
2022-10-04T22:43:51.567Z,77.93
2022-10-04T22:46:21.174Z,77.84
2022-10-04T22:48:50.922Z,78.04
2022-10-04T22:51:19.111Z,78.22
2022-10-04T22:53:48.916Z,77.91
2022-10-04T22:56:17.513Z,77.97
2022-10-04T22:58:45.685Z,77.98
2022-10-04T23:01:18.597Z,78.01
2022-10-04T23:03:49.540Z,78.04
2022-10-04T23:06:17.843Z,77.80
2022-10-04T23:08:46.216Z,77.75
2022-10-04T23:11:14.472Z,78.07
2022-10-04T23:13:42.684Z,78.07
2022-10-04T23:16:19.541Z,77.74
2022-10-04T23:18:47.759Z,77.70
2022-10-04T23:21:23.016Z,77.77
2022-10-04T23:23:52.912Z,77.76
2022-10-04T23:26:25.570Z,77.96
2022-10-04T23:28:54.115Z,78.13
2022-10-04T23:31:26.049Z,77.85
2022-10-04T23:33:57.865Z,78.18
2022-10-04T23:36:26.463Z,77.78
2022-10-04T23:39:01.643Z,78.00
2022-10-04T23:41:30.279Z,77.76
2022-10-04T23:43:58.500Z,78.07
2022-10-04T23:46:30.894Z,77.91
2022-10-04T23:48:59.071Z,78.22
2022-10-04T23:51:27.325Z,78.13
2022-10-04T23:53:55.513Z,77.93
2022-10-04T23:56:28.438Z,77.89
2022-10-04T23:58:59.783Z,78.00
